CDG weather

Charles de Gaulle International Airport
Paris, Île-de-France, France

Public forecast

Using degrees Celsius for public forecast. Weather courtesy of forecast.io.

METAR (pilot weather report)

Retrieved 2017/10/22 10:30 UTC (13 minutes ago):

LFPG 221030Z 26015G26KT 230V290 9999 -SHRA SCT024 BKN050 11/07 Q1018 NOSIG

TAF (pilot weather forecast)

Retrieved 2017/10/22 06:21 UTC (4 hours ago):

TAF LFPG 220500Z 2206/2312 22015G25KT CAVOK BECMG 2209/2211 SCT012TCU PROB30 TEMPO 2212/2215 -SHRA SCT010CB BECMG 2216/2218 26010KT CAVOK BECMG 2221/2223 BKN006 PROB30 TEMPO 2305/2306 BKN003 BECMG 2306/2308 CAVOK TX13/2312Z TN09/2305Z